Stokesdale, NC (27357)

3:56 PM EDT on April 28, 2015 (GMT -0400)
Summerfield Elementary | | Change Station
CLOSE
Current Station
Personal Weather Station
Location: Summerfield, NC
Elevation: 882 ft
Nearby Weather Stations

Elev 882 ft 36.20 °N, 79.90 °W | Updated 12 minutes ago

Clear
Clear
67.3 °F
Feels Like 67.3 °F
N
2.0
Wind Variable Wind from WNW
Gusts 10.0 mph

Today
High -- | Low -- °F
--% Chance of Precip.
Yesterday
High -- | Low -- °F
Precip. -- in
6:30 AM 8:04 PM
Waxing Gibbous, 76% visible
Pressure 29.92 in
Visibility 10.0 miles
Clouds Few 6500 ft
Dew Point 36 °F
Humidity 32%
Rainfall 0.00 in
Snow Depth Not available.
UV 9 out of 12
Pollen 9.70 out of 12
Air Quality Not available.
Flu Activity Sporadic
METAR KGSO 281854Z VRB03KT 10SM FEW065 18/01 A2993 RMK AO2 SLP132 T01780011

More Conditions Fewer Conditions

Pressure 29.92 in
Visibility 10.0 miles
Clouds Few 6500 ft
Dew Point 36 °F
Humidity 32%
Rainfall 0.00 in
Snow Depth Not available.
UV 9 out of 12
Pollen 9.70 out of 12
Air Quality Not available.
Flu Activity Sporadic
METAR KGSO 281854Z VRB03KT 10SM FEW065 18/01 A2993 RMK AO2 SLP132 T01780011

More Conditions Fewer Conditions

10-Day Weather Forecast

Almanac

Astronomy

Apr. 28, 2015 Rise Set
Actual Time
Civil Twilight
Nautical Twilight
Astronomical Twilight
Moon
Length of Visible Light
Length of Day
Tomorrow will be .
, % of the Moon is Illuminated

Today's Extremes

State Highs State Lows

Community

WunderPhotos

Upload Photos

1,817,741 photos uploaded!

WunderBlogs® & News

Nearby

Air Quality

  Air Quality AQ Index Pollutant
Not available.

Snow Depth

Station Depth Elevation

Earthquake Activity

City Distance Mag. Time & Date
Minimum magnitude displayed is 2.5.

Coastal Water Temperatures

Place Temperature

Stations

Nearby Weather Stations

Station Location Temp. Windchill Dew Point Humidity Wind Precip. Elev Updated Type